sensor_id;sensor_type;location;lat;lon;timestamp;P1;durP1;ratioP1;P2;durP2;ratioP2
6282;SDS011;3174;53.486;9.568;2024-03-08T00:00:14;15.30;;;8.60;;
6282;SDS011;3174;53.486;9.568;2024-03-08T00:02:46;13.83;;;6.93;;
6282;SDS011;3174;53.486;9.568;2024-03-08T00:05:14;14.37;;;7.63;;
6282;SDS011;3174;53.486;9.568;2024-03-08T00:07:44;15.53;;;7.23;;
6282;SDS011;3174;53.486;9.568;2024-03-08T00:10:12;14.93;;;7.10;;
6282;SDS011;3174;53.486;9.568;2024-03-08T00:12:42;16.07;;;7.00;;
6282;SDS011;3174;53.486;9.568;2024-03-08T00:15:11;16.10;;;7.83;;
6282;SDS011;3174;53.486;9.568;2024-03-08T00:17:43;15.83;;;8.03;;
6282;SDS011;3174;53.486;9.568;2024-03-08T00:20:12;16.47;;;8.13;;
6282;SDS011;3174;53.486;9.568;2024-03-08T00:22:41;18.83;;;7.57;;
6282;SDS011;3174;53.486;9.568;2024-03-08T00:25:09;18.07;;;8.77;;
6282;SDS011;3174;53.486;9.568;2024-03-08T00:27:38;15.63;;;7.43;;
6282;SDS011;3174;53.486;9.568;2024-03-08T00:30:07;15.00;;;8.07;;
6282;SDS011;3174;53.486;9.568;2024-03-08T00:32:37;15.90;;;7.17;;
6282;SDS011;3174;53.486;9.568;2024-03-08T00:35:07;12.80;;;7.40;;
6282;SDS011;3174;53.486;9.568;2024-03-08T00:37:35;13.67;;;6.83;;
6282;SDS011;3174;53.486;9.568;2024-03-08T00:40:04;13.93;;;6.93;;
6282;SDS011;3174;53.486;9.568;2024-03-08T00:42:36;12.47;;;7.47;;
6282;SDS011;3174;53.486;9.568;2024-03-08T00:45:05;14.93;;;8.23;;
6282;SDS011;3174;53.486;9.568;2024-03-08T00:47:34;14.93;;;7.33;;
6282;SDS011;3174;53.486;9.568;2024-03-08T00:50:02;14.63;;;7.53;;
6282;SDS011;3174;53.486;9.568;2024-03-08T00:52:32;18.97;;;8.30;;
6282;SDS011;3174;53.486;9.568;2024-03-08T00:55:01;18.17;;;9.00;;
6282;SDS011;3174;53.486;9.568;2024-03-08T00:57:29;18.93;;;6.87;;
6282;SDS011;3174;53.486;9.568;2024-03-08T00:59:57;15.77;;;7.67;;
6282;SDS011;3174;53.486;9.568;2024-03-08T01:02:26;13.97;;;6.27;;
6282;SDS011;3174;53.486;9.568;2024-03-08T01:04:54;15.37;;;7.20;;
6282;SDS011;3174;53.486;9.568;2024-03-08T01:07:22;15.63;;;7.93;;
6282;SDS011;3174;53.486;9.568;2024-03-08T01:09:51;19.23;;;7.93;;
6282;SDS011;3174;53.486;9.568;2024-03-08T01:12:19;15.50;;;7.53;;
6282;SDS011;3174;53.486;9.568;2024-03-08T01:14:48;16.47;;;7.50;;
6282;SDS011;3174;53.486;9.568;2024-03-08T01:17:16;14.03;;;8.03;;
6282;SDS011;3174;53.486;9.568;2024-03-08T01:19:44;13.67;;;7.47;;
6282;SDS011;3174;53.486;9.568;2024-03-08T01:22:12;15.67;;;7.97;;
6282;SDS011;3174;53.486;9.568;2024-03-08T01:24:40;14.63;;;7.40;;
6282;SDS011;3174;53.486;9.568;2024-03-08T01:27:10;14.20;;;7.63;;
6282;SDS011;3174;53.486;9.568;2024-03-08T01:29:39;15.93;;;7.77;;
6282;SDS011;3174;53.486;9.568;2024-03-08T01:32:07;16.87;;;8.43;;
6282;SDS011;3174;53.486;9.568;2024-03-08T01:34:35;16.43;;;7.63;;
6282;SDS011;3174;53.486;9.568;2024-03-08T01:37:03;16.63;;;7.10;;
6282;SDS011;3174;53.486;9.568;2024-03-08T01:39:31;17.53;;;8.83;;
6282;SDS011;3174;53.486;9.568;2024-03-08T01:41:59;16.87;;;7.27;;
6282;SDS011;3174;53.486;9.568;2024-03-08T01:44:29;14.27;;;7.20;;
6282;SDS011;3174;53.486;9.568;2024-03-08T01:46:58;13.70;;;7.50;;
6282;SDS011;3174;53.486;9.568;2024-03-08T01:49:26;14.63;;;7.50;;
6282;SDS011;3174;53.486;9.568;2024-03-08T01:51:54;19.80;;;9.20;;
6282;SDS011;3174;53.486;9.568;2024-03-08T01:54:23;19.50;;;8.70;;
6282;SDS011;3174;53.486;9.568;2024-03-08T01:56:52;18.70;;;8.03;;
6282;SDS011;3174;53.486;9.568;2024-03-08T01:59:21;15.23;;;7.60;;
6282;SDS011;3174;53.486;9.568;2024-03-08T02:01:51;18.03;;;7.40;;
6282;SDS011;3174;53.486;9.568;2024-03-08T02:04:19;13.83;;;7.50;;
6282;SDS011;3174;53.486;9.568;2024-03-08T02:06:48;13.93;;;7.63;;
6282;SDS011;3174;53.486;9.568;2024-03-08T02:09:16;16.17;;;7.50;;
6282;SDS011;3174;53.486;9.568;2024-03-08T02:11:45;16.63;;;8.13;;
6282;SDS011;3174;53.486;9.568;2024-03-08T02:14:13;15.40;;;8.00;;
6282;SDS011;3174;53.486;9.568;2024-03-08T02:16:41;13.83;;;7.60;;
6282;SDS011;3174;53.486;9.568;2024-03-08T02:19:11;14.63;;;6.93;;
6282;SDS011;3174;53.486;9.568;2024-03-08T02:21:40;22.07;;;8.87;;
6282;SDS011;3174;53.486;9.568;2024-03-08T02:24:08;15.53;;;8.23;;
6282;SDS011;3174;53.486;9.568;2024-03-08T02:26:36;19.43;;;8.27;;
6282;SDS011;3174;53.486;9.568;2024-03-08T02:29:04;17.10;;;7.80;;
6282;SDS011;3174;53.486;9.568;2024-03-08T02:31:33;16.53;;;7.27;;
6282;SDS011;3174;53.486;9.568;2024-03-08T02:34:01;15.53;;;7.50;;
6282;SDS011;3174;53.486;9.568;2024-03-08T02:36:29;15.23;;;7.17;;
6282;SDS011;3174;53.486;9.568;2024-03-08T02:39:02;13.23;;;7.00;;
6282;SDS011;3174;53.486;9.568;2024-03-08T02:41:31;12.70;;;7.00;;
6282;SDS011;3174;53.486;9.568;2024-03-08T02:44:00;15.73;;;7.90;;
6282;SDS011;3174;53.486;9.568;2024-03-08T02:46:28;16.57;;;7.80;;
6282;SDS011;3174;53.486;9.568;2024-03-08T02:48:56;16.43;;;7.30;;
6282;SDS011;3174;53.486;9.568;2024-03-08T02:51:24;15.57;;;7.73;;
6282;SDS011;3174;53.486;9.568;2024-03-08T02:53:53;16.37;;;7.37;;
6282;SDS011;3174;53.486;9.568;2024-03-08T02:56:22;16.30;;;8.30;;
6282;SDS011;3174;53.486;9.568;2024-03-08T02:58:50;15.60;;;7.73;;
6282;SDS011;3174;53.486;9.568;2024-03-08T03:01:19;15.27;;;7.83;;
6282;SDS011;3174;53.486;9.568;2024-03-08T03:03:48;14.97;;;7.87;;
6282;SDS011;3174;53.486;9.568;2024-03-08T03:06:16;14.43;;;7.07;;
6282;SDS011;3174;53.486;9.568;2024-03-08T03:08:47;14.63;;;7.03;;
6282;SDS011;3174;53.486;9.568;2024-03-08T03:11:17;15.23;;;7.53;;
6282;SDS011;3174;53.486;9.568;2024-03-08T03:13:47;14.80;;;7.47;;
6282;SDS011;3174;53.486;9.568;2024-03-08T03:16:18;13.17;;;7.63;;
6282;SDS011;3174;53.486;9.568;2024-03-08T03:18:47;14.27;;;7.70;;
6282;SDS011;3174;53.486;9.568;2024-03-08T03:21:15;16.60;;;7.77;;
6282;SDS011;3174;53.486;9.568;2024-03-08T03:23:44;15.53;;;7.87;;
6282;SDS011;3174;53.486;9.568;2024-03-08T03:26:12;13.43;;;7.80;;
6282;SDS011;3174;53.486;9.568;2024-03-08T03:28:43;13.63;;;7.43;;
6282;SDS011;3174;53.486;9.568;2024-03-08T03:31:13;16.67;;;8.07;;
6282;SDS011;3174;53.486;9.568;2024-03-08T03:33:41;12.47;;;6.73;;
6282;SDS011;3174;53.486;9.568;2024-03-08T03:36:10;17.97;;;8.97;;
6282;SDS011;3174;53.486;9.568;2024-03-08T03:38:38;11.90;;;6.63;;
6282;SDS011;3174;53.486;9.568;2024-03-08T03:41:06;13.37;;;6.70;;
6282;SDS011;3174;53.486;9.568;2024-03-08T03:43:37;15.07;;;7.60;;
6282;SDS011;3174;53.486;9.568;2024-03-08T03:46:06;12.60;;;7.13;;
6282;SDS011;3174;53.486;9.568;2024-03-08T03:48:38;13.37;;;7.23;;
6282;SDS011;3174;53.486;9.568;2024-03-08T03:51:09;15.87;;;8.20;;
6282;SDS011;3174;53.486;9.568;2024-03-08T03:53:37;14.43;;;7.40;;
6282;SDS011;3174;53.486;9.568;2024-03-08T03:56:06;15.93;;;7.17;;
6282;SDS011;3174;53.486;9.568;2024-03-08T03:58:35;14.13;;;7.57;;
6282;SDS011;3174;53.486;9.568;2024-03-08T04:01:04;13.73;;;7.03;;
6282;SDS011;3174;53.486;9.568;2024-03-08T04:03:32;13.13;;;7.07;;
6282;SDS011;3174;53.486;9.568;2024-03-08T04:06:01;14.00;;;6.63;;
6282;SDS011;3174;53.486;9.568;2024-03-08T04:08:31;15.57;;;7.37;;
6282;SDS011;3174;53.486;9.568;2024-03-08T04:11:00;13.50;;;7.10;;
6282;SDS011;3174;53.486;9.568;2024-03-08T04:13:29;20.37;;;8.07;;
6282;SDS011;3174;53.486;9.568;2024-03-08T04:15:57;11.33;;;6.57;;
6282;SDS011;3174;53.486;9.568;2024-03-08T04:18:25;18.63;;;7.10;;
6282;SDS011;3174;53.486;9.568;2024-03-08T04:20:54;15.47;;;6.93;;
6282;SDS011;3174;53.486;9.568;2024-03-08T04:23:24;14.77;;;7.70;;
6282;SDS011;3174;53.486;9.568;2024-03-08T04:25:52;14.60;;;6.37;;
6282;SDS011;3174;53.486;9.568;2024-03-08T04:28:20;14.63;;;7.27;;
6282;SDS011;3174;53.486;9.568;2024-03-08T04:30:48;13.67;;;7.30;;
6282;SDS011;3174;53.486;9.568;2024-03-08T04:33:17;16.73;;;8.33;;
6282;SDS011;3174;53.486;9.568;2024-03-08T04:35:45;14.37;;;7.20;;
6282;SDS011;3174;53.486;9.568;2024-03-08T04:38:13;14.77;;;7.53;;
6282;SDS011;3174;53.486;9.568;2024-03-08T04:40:43;11.83;;;6.50;;
6282;SDS011;3174;53.486;9.568;2024-03-08T04:43:11;16.40;;;7.93;;
6282;SDS011;3174;53.486;9.568;2024-03-08T04:45:40;18.63;;;7.80;;
6282;SDS011;3174;53.486;9.568;2024-03-08T04:48:10;16.10;;;6.97;;
6282;SDS011;3174;53.486;9.568;2024-03-08T04:50:39;15.83;;;6.83;;
6282;SDS011;3174;53.486;9.568;2024-03-08T04:53:07;17.00;;;7.07;;
6282;SDS011;3174;53.486;9.568;2024-03-08T04:55:35;16.77;;;7.67;;
6282;SDS011;3174;53.486;9.568;2024-03-08T04:58:05;21.70;;;8.27;;
6282;SDS011;3174;53.486;9.568;2024-03-08T05:00:34;16.33;;;7.63;;
6282;SDS011;3174;53.486;9.568;2024-03-08T05:03:02;15.60;;;7.33;;
6282;SDS011;3174;53.486;9.568;2024-03-08T05:05:31;13.73;;;7.20;;
6282;SDS011;3174;53.486;9.568;2024-03-08T05:07:59;15.80;;;7.60;;
6282;SDS011;3174;53.486;9.568;2024-03-08T05:10:29;15.60;;;7.47;;
6282;SDS011;3174;53.486;9.568;2024-03-08T05:12:57;18.10;;;7.43;;
6282;SDS011;3174;53.486;9.568;2024-03-08T05:15:26;14.83;;;7.13;;
6282;SDS011;3174;53.486;9.568;2024-03-08T05:17:54;17.10;;;8.20;;
6282;SDS011;3174;53.486;9.568;2024-03-08T05:20:24;15.03;;;8.27;;
6282;SDS011;3174;53.486;9.568;2024-03-08T05:22:53;15.93;;;7.43;;
6282;SDS011;3174;53.486;9.568;2024-03-08T05:25:21;14.80;;;7.20;;
6282;SDS011;3174;53.486;9.568;2024-03-08T05:27:49;15.70;;;7.00;;
6282;SDS011;3174;53.486;9.568;2024-03-08T05:30:18;24.47;;;8.37;;
6282;SDS011;3174;53.486;9.568;2024-03-08T05:32:49;13.00;;;7.23;;
6282;SDS011;3174;53.486;9.568;2024-03-08T05:35:17;17.53;;;7.50;;
6282;SDS011;3174;53.486;9.568;2024-03-08T05:37:47;15.67;;;7.03;;
6282;SDS011;3174;53.486;9.568;2024-03-08T05:40:15;12.50;;;7.37;;
6282;SDS011;3174;53.486;9.568;2024-03-08T05:42:46;14.63;;;7.07;;
6282;SDS011;3174;53.486;9.568;2024-03-08T05:45:14;17.27;;;8.20;;
6282;SDS011;3174;53.486;9.568;2024-03-08T05:47:42;17.23;;;7.90;;
6282;SDS011;3174;53.486;9.568;2024-03-08T05:50:12;13.53;;;7.70;;
6282;SDS011;3174;53.486;9.568;2024-03-08T05:52:42;12.13;;;7.07;;
6282;SDS011;3174;53.486;9.568;2024-03-08T05:55:10;14.50;;;7.70;;
6282;SDS011;3174;53.486;9.568;2024-03-08T05:57:40;17.77;;;8.10;;
6282;SDS011;3174;53.486;9.568;2024-03-08T06:00:09;18.17;;;8.83;;
6282;SDS011;3174;53.486;9.568;2024-03-08T06:02:38;16.37;;;8.50;;
6282;SDS011;3174;53.486;9.568;2024-03-08T06:05:08;17.20;;;7.83;;
6282;SDS011;3174;53.486;9.568;2024-03-08T06:07:38;19.27;;;7.73;;
6282;SDS011;3174;53.486;9.568;2024-03-08T06:10:08;17.40;;;8.87;;
6282;SDS011;3174;53.486;9.568;2024-03-08T06:12:39;15.03;;;7.83;;
6282;SDS011;3174;53.486;9.568;2024-03-08T06:15:08;16.37;;;7.83;;
6282;SDS011;3174;53.486;9.568;2024-03-08T06:17:41;20.07;;;8.67;;
6282;SDS011;3174;53.486;9.568;2024-03-08T06:20:09;13.40;;;8.23;;
6282;SDS011;3174;53.486;9.568;2024-03-08T06:22:41;16.23;;;7.20;;
6282;SDS011;3174;53.486;9.568;2024-03-08T06:25:11;15.67;;;7.77;;
6282;SDS011;3174;53.486;9.568;2024-03-08T06:27:40;15.30;;;7.37;;
6282;SDS011;3174;53.486;9.568;2024-03-08T06:30:09;20.77;;;7.30;;
6282;SDS011;3174;53.486;9.568;2024-03-08T06:32:38;13.70;;;7.20;;
6282;SDS011;3174;53.486;9.568;2024-03-08T06:35:09;15.53;;;8.57;;
6282;SDS011;3174;53.486;9.568;2024-03-08T06:37:37;18.13;;;8.37;;
6282;SDS011;3174;53.486;9.568;2024-03-08T06:40:08;15.93;;;7.63;;
6282;SDS011;3174;53.486;9.568;2024-03-08T06:42:40;18.17;;;8.03;;
6282;SDS011;3174;53.486;9.568;2024-03-08T06:45:09;20.13;;;8.93;;
6282;SDS011;3174;53.486;9.568;2024-03-08T06:47:39;19.17;;;8.20;;
6282;SDS011;3174;53.486;9.568;2024-03-08T06:50:08;17.33;;;8.83;;
6282;SDS011;3174;53.486;9.568;2024-03-08T06:52:37;24.47;;;9.80;;
6282;SDS011;3174;53.486;9.568;2024-03-08T06:55:08;18.27;;;8.33;;
6282;SDS011;3174;53.486;9.568;2024-03-08T06:57:38;17.50;;;7.70;;
6282;SDS011;3174;53.486;9.568;2024-03-08T07:00:08;17.20;;;7.53;;
6282;SDS011;3174;53.486;9.568;2024-03-08T07:02:38;17.10;;;7.13;;
6282;SDS011;3174;53.486;9.568;2024-03-08T07:05:08;13.43;;;8.07;;
6282;SDS011;3174;53.486;9.568;2024-03-08T07:07:37;17.80;;;8.33;;
6282;SDS011;3174;53.486;9.568;2024-03-08T07:10:05;18.63;;;7.87;;
6282;SDS011;3174;53.486;9.568;2024-03-08T07:12:37;21.80;;;9.67;;
6282;SDS011;3174;53.486;9.568;2024-03-08T07:15:06;15.50;;;7.93;;
6282;SDS011;3174;53.486;9.568;2024-03-08T07:17:34;17.53;;;8.23;;
6282;SDS011;3174;53.486;9.568;2024-03-08T07:20:03;16.20;;;7.97;;
6282;SDS011;3174;53.486;9.568;2024-03-08T07:22:34;19.30;;;8.60;;
6282;SDS011;3174;53.486;9.568;2024-03-08T07:25:04;19.07;;;8.73;;
6282;SDS011;3174;53.486;9.568;2024-03-08T07:27:48;24.70;;;11.07;;
6282;SDS011;3174;53.486;9.568;2024-03-08T07:30:16;21.83;;;9.80;;
6282;SDS011;3174;53.486;9.568;2024-03-08T07:32:58;16.57;;;8.73;;
6282;SDS011;3174;53.486;9.568;2024-03-08T07:35:28;22.03;;;10.50;;
6282;SDS011;3174;53.486;9.568;2024-03-08T07:37:57;21.40;;;8.60;;
6282;SDS011;3174;53.486;9.568;2024-03-08T07:40:26;21.47;;;9.00;;
6282;SDS011;3174;53.486;9.568;2024-03-08T07:42:56;16.70;;;8.47;;
6282;SDS011;3174;53.486;9.568;2024-03-08T07:45:25;20.93;;;9.77;;
6282;SDS011;3174;53.486;9.568;2024-03-08T07:47:53;16.73;;;8.63;;
6282;SDS011;3174;53.486;9.568;2024-03-08T07:50:22;16.93;;;8.03;;
6282;SDS011;3174;53.486;9.568;2024-03-08T07:52:50;19.23;;;9.53;;
6282;SDS011;3174;53.486;9.568;2024-03-08T07:55:18;20.43;;;9.37;;
6282;SDS011;3174;53.486;9.568;2024-03-08T07:57:47;19.40;;;9.83;;
6282;SDS011;3174;53.486;9.568;2024-03-08T08:00:16;23.17;;;10.13;;
6282;SDS011;3174;53.486;9.568;2024-03-08T08:02:45;20.97;;;10.50;;
6282;SDS011;3174;53.486;9.568;2024-03-08T08:05:15;19.23;;;9.83;;
6282;SDS011;3174;53.486;9.568;2024-03-08T08:07:44;19.50;;;9.63;;
6282;SDS011;3174;53.486;9.568;2024-03-08T08:10:17;24.30;;;12.30;;
6282;SDS011;3174;53.486;9.568;2024-03-08T08:12:48;21.47;;;11.40;;
6282;SDS011;3174;53.486;9.568;2024-03-08T08:15:18;24.53;;;10.83;;
6282;SDS011;3174;53.486;9.568;2024-03-08T08:17:46;18.63;;;9.70;;
6282;SDS011;3174;53.486;9.568;2024-03-08T08:20:14;21.27;;;10.07;;
6282;SDS011;3174;53.486;9.568;2024-03-08T08:22:45;20.43;;;9.77;;
6282;SDS011;3174;53.486;9.568;2024-03-08T08:25:14;17.47;;;9.70;;
6282;SDS011;3174;53.486;9.568;2024-03-08T08:27:47;23.07;;;10.43;;
6282;SDS011;3174;53.486;9.568;2024-03-08T08:30:15;24.00;;;10.30;;
6282;SDS011;3174;53.486;9.568;2024-03-08T08:32:46;18.37;;;9.87;;
6282;SDS011;3174;53.486;9.568;2024-03-08T08:35:15;20.47;;;9.87;;
6282;SDS011;3174;53.486;9.568;2024-03-08T08:37:46;17.53;;;9.37;;
6282;SDS011;3174;53.486;9.568;2024-03-08T08:40:14;19.47;;;9.47;;
6282;SDS011;3174;53.486;9.568;2024-03-08T08:42:44;18.80;;;9.33;;
6282;SDS011;3174;53.486;9.568;2024-03-08T08:45:15;21.63;;;9.87;;
6282;SDS011;3174;53.486;9.568;2024-03-08T08:47:52;19.20;;;9.80;;
6282;SDS011;3174;53.486;9.568;2024-03-08T08:50:21;16.67;;;8.87;;
6282;SDS011;3174;53.486;9.568;2024-03-08T08:52:51;19.03;;;10.47;;
6282;SDS011;3174;53.486;9.568;2024-03-08T08:55:19;19.27;;;9.10;;
6282;SDS011;3174;53.486;9.568;2024-03-08T08:57:52;17.53;;;10.23;;
6282;SDS011;3174;53.486;9.568;2024-03-08T09:00:20;22.27;;;10.23;;
6282;SDS011;3174;53.486;9.568;2024-03-08T09:02:55;21.97;;;9.90;;
6282;SDS011;3174;53.486;9.568;2024-03-08T09:05:25;18.10;;;9.63;;
6282;SDS011;3174;53.486;9.568;2024-03-08T09:07:53;23.63;;;10.87;;
6282;SDS011;3174;53.486;9.568;2024-03-08T09:10:21;19.63;;;9.93;;
6282;SDS011;3174;53.486;9.568;2024-03-08T09:12:56;23.67;;;9.50;;
6282;SDS011;3174;53.486;9.568;2024-03-08T09:15:26;21.40;;;10.87;;
6282;SDS011;3174;53.486;9.568;2024-03-08T09:17:57;21.03;;;10.07;;
6282;SDS011;3174;53.486;9.568;2024-03-08T09:20:25;19.37;;;10.20;;
6282;SDS011;3174;53.486;9.568;2024-03-08T09:22:54;20.07;;;10.33;;
6282;SDS011;3174;53.486;9.568;2024-03-08T09:25:22;27.33;;;11.57;;
6282;SDS011;3174;53.486;9.568;2024-03-08T09:27:50;23.23;;;11.20;;
6282;SDS011;3174;53.486;9.568;2024-03-08T09:30:18;19.40;;;9.93;;
6282;SDS011;3174;53.486;9.568;2024-03-08T09:32:48;19.53;;;10.83;;
6282;SDS011;3174;53.486;9.568;2024-03-08T09:35:19;22.57;;;10.37;;
6282;SDS011;3174;53.486;9.568;2024-03-08T09:37:47;22.63;;;10.03;;
6282;SDS011;3174;53.486;9.568;2024-03-08T09:40:18;20.30;;;10.87;;
6282;SDS011;3174;53.486;9.568;2024-03-08T09:42:47;23.27;;;11.60;;
6282;SDS011;3174;53.486;9.568;2024-03-08T09:45:15;20.97;;;10.53;;
6282;SDS011;3174;53.486;9.568;2024-03-08T09:47:44;20.87;;;10.73;;
6282;SDS011;3174;53.486;9.568;2024-03-08T09:50:13;21.83;;;10.37;;
6282;SDS011;3174;53.486;9.568;2024-03-08T09:52:42;33.17;;;16.33;;
6282;SDS011;3174;53.486;9.568;2024-03-08T09:55:11;22.63;;;11.80;;
6282;SDS011;3174;53.486;9.568;2024-03-08T09:57:40;17.97;;;9.77;;
6282;SDS011;3174;53.486;9.568;2024-03-08T10:00:09;20.00;;;10.90;;
6282;SDS011;3174;53.486;9.568;2024-03-08T10:02:50;21.47;;;10.47;;
6282;SDS011;3174;53.486;9.568;2024-03-08T10:05:20;23.80;;;12.23;;
6282;SDS011;3174;53.486;9.568;2024-03-08T10:07:51;25.37;;;11.17;;
6282;SDS011;3174;53.486;9.568;2024-03-08T10:10:19;18.70;;;10.40;;
6282;SDS011;3174;53.486;9.568;2024-03-08T10:12:48;24.37;;;11.37;;
6282;SDS011;3174;53.486;9.568;2024-03-08T10:15:16;25.27;;;11.47;;
6282;SDS011;3174;53.486;9.568;2024-03-08T10:17:44;18.30;;;9.40;;
6282;SDS011;3174;53.486;9.568;2024-03-08T10:20:13;20.67;;;9.83;;
6282;SDS011;3174;53.486;9.568;2024-03-08T10:22:42;19.40;;;10.63;;
6282;SDS011;3174;53.486;9.568;2024-03-08T10:25:29;19.93;;;10.57;;
6282;SDS011;3174;53.486;9.568;2024-03-08T10:27:57;19.60;;;9.47;;
6282;SDS011;3174;53.486;9.568;2024-03-08T10:30:25;20.90;;;10.17;;
6282;SDS011;3174;53.486;9.568;2024-03-08T10:32:54;16.57;;;8.73;;
6282;SDS011;3174;53.486;9.568;2024-03-08T10:35:22;18.63;;;9.67;;
6282;SDS011;3174;53.486;9.568;2024-03-08T10:37:51;18.73;;;9.90;;
6282;SDS011;3174;53.486;9.568;2024-03-08T10:40:26;20.43;;;9.53;;
6282;SDS011;3174;53.486;9.568;2024-03-08T10:42:56;19.40;;;9.83;;
6282;SDS011;3174;53.486;9.568;2024-03-08T10:45:33;18.33;;;9.33;;
6282;SDS011;3174;53.486;9.568;2024-03-08T10:48:04;18.07;;;8.70;;
6282;SDS011;3174;53.486;9.568;2024-03-08T10:50:38;16.23;;;9.00;;
6282;SDS011;3174;53.486;9.568;2024-03-08T10:53:06;17.23;;;8.23;;
6282;SDS011;3174;53.486;9.568;2024-03-08T10:55:35;16.13;;;7.93;;
6282;SDS011;3174;53.486;9.568;2024-03-08T10:58:06;19.73;;;9.13;;
6282;SDS011;3174;53.486;9.568;2024-03-08T11:00:34;12.53;;;7.30;;
6282;SDS011;3174;53.486;9.568;2024-03-08T11:03:03;15.60;;;7.93;;
6282;SDS011;3174;53.486;9.568;2024-03-08T11:05:32;15.60;;;8.13;;
6282;SDS011;3174;53.486;9.568;2024-03-08T11:08:16;16.20;;;8.80;;
6282;SDS011;3174;53.486;9.568;2024-03-08T11:10:46;16.03;;;8.83;;
6282;SDS011;3174;53.486;9.568;2024-03-08T11:13:35;16.13;;;7.90;;
6282;SDS011;3174;53.486;9.568;2024-03-08T11:16:06;13.80;;;8.07;;
6282;SDS011;3174;53.486;9.568;2024-03-08T11:18:36;14.90;;;8.03;;
6282;SDS011;3174;53.486;9.568;2024-03-08T11:21:06;17.57;;;8.23;;
6282;SDS011;3174;53.486;9.568;2024-03-08T11:23:39;14.73;;;8.37;;
6282;SDS011;3174;53.486;9.568;2024-03-08T11:26:17;15.20;;;8.53;;
6282;SDS011;3174;53.486;9.568;2024-03-08T11:28:47;14.97;;;7.77;;
6282;SDS011;3174;53.486;9.568;2024-03-08T11:31:24;18.17;;;8.37;;
6282;SDS011;3174;53.486;9.568;2024-03-08T11:33:55;17.03;;;8.77;;
6282;SDS011;3174;53.486;9.568;2024-03-08T11:36:24;15.53;;;8.43;;
6282;SDS011;3174;53.486;9.568;2024-03-08T11:38:52;17.93;;;9.47;;
6282;SDS011;3174;53.486;9.568;2024-03-08T11:41:22;13.63;;;8.27;;
6282;SDS011;3174;53.486;9.568;2024-03-08T11:44:02;14.20;;;7.43;;
6282;SDS011;3174;53.486;9.568;2024-03-08T11:46:33;17.30;;;9.37;;
6282;SDS011;3174;53.486;9.568;2024-03-08T11:49:01;17.13;;;9.70;;
6282;SDS011;3174;53.486;9.568;2024-03-08T11:51:32;16.37;;;8.90;;
6282;SDS011;3174;53.486;9.568;2024-03-08T11:54:00;17.77;;;8.73;;
6282;SDS011;3174;53.486;9.568;2024-03-08T11:56:29;16.80;;;8.93;;
6282;SDS011;3174;53.486;9.568;2024-03-08T11:58:58;17.60;;;8.83;;
6282;SDS011;3174;53.486;9.568;2024-03-08T12:01:29;17.30;;;8.63;;
6282;SDS011;3174;53.486;9.568;2024-03-08T12:03:59;16.50;;;8.70;;
6282;SDS011;3174;53.486;9.568;2024-03-08T12:06:35;18.30;;;9.40;;
6282;SDS011;3174;53.486;9.568;2024-03-08T12:09:07;16.30;;;9.00;;
6282;SDS011;3174;53.486;9.568;2024-03-08T12:11:36;16.03;;;8.20;;
6282;SDS011;3174;53.486;9.568;2024-03-08T12:14:06;15.07;;;8.60;;
6282;SDS011;3174;53.486;9.568;2024-03-08T12:16:36;15.93;;;8.37;;
6282;SDS011;3174;53.486;9.568;2024-03-08T12:19:04;17.60;;;8.43;;
6282;SDS011;3174;53.486;9.568;2024-03-08T12:21:33;19.73;;;8.90;;
6282;SDS011;3174;53.486;9.568;2024-03-08T12:24:02;16.97;;;8.40;;
6282;SDS011;3174;53.486;9.568;2024-03-08T12:26:31;15.33;;;8.60;;
6282;SDS011;3174;53.486;9.568;2024-03-08T12:29:14;15.67;;;8.40;;
6282;SDS011;3174;53.486;9.568;2024-03-08T12:31:44;17.13;;;8.87;;
6282;SDS011;3174;53.486;9.568;2024-03-08T12:34:13;15.30;;;8.50;;
6282;SDS011;3174;53.486;9.568;2024-03-08T12:36:45;18.53;;;9.63;;
6282;SDS011;3174;53.486;9.568;2024-03-08T12:39:18;15.97;;;9.43;;
6282;SDS011;3174;53.486;9.568;2024-03-08T12:41:49;18.10;;;8.57;;
6282;SDS011;3174;53.486;9.568;2024-03-08T12:44:18;18.67;;;9.50;;
6282;SDS011;3174;53.486;9.568;2024-03-08T12:46:49;14.73;;;8.37;;
6282;SDS011;3174;53.486;9.568;2024-03-08T12:49:19;19.57;;;9.13;;
6282;SDS011;3174;53.486;9.568;2024-03-08T12:51:52;18.00;;;10.07;;
6282;SDS011;3174;53.486;9.568;2024-03-08T12:54:20;18.50;;;9.13;;
6282;SDS011;3174;53.486;9.568;2024-03-08T12:56:50;15.50;;;8.90;;
6282;SDS011;3174;53.486;9.568;2024-03-08T12:59:20;17.90;;;9.70;;
6282;SDS011;3174;53.486;9.568;2024-03-08T13:01:51;21.37;;;9.27;;
6282;SDS011;3174;53.486;9.568;2024-03-08T13:04:20;16.43;;;8.00;;
6282;SDS011;3174;53.486;9.568;2024-03-08T13:06:49;18.13;;;8.60;;
6282;SDS011;3174;53.486;9.568;2024-03-08T13:09:20;13.57;;;7.17;;
6282;SDS011;3174;53.486;9.568;2024-03-08T13:11:50;16.90;;;8.73;;
6282;SDS011;3174;53.486;9.568;2024-03-08T13:14:20;15.37;;;7.30;;
6282;SDS011;3174;53.486;9.568;2024-03-08T13:16:48;19.10;;;8.23;;
6282;SDS011;3174;53.486;9.568;2024-03-08T13:19:20;18.63;;;8.43;;
6282;SDS011;3174;53.486;9.568;2024-03-08T13:21:48;13.43;;;8.17;;
6282;SDS011;3174;53.486;9.568;2024-03-08T13:24:16;17.50;;;8.77;;
6282;SDS011;3174;53.486;9.568;2024-03-08T13:26:45;16.33;;;8.33;;
6282;SDS011;3174;53.486;9.568;2024-03-08T13:29:15;12.73;;;7.80;;
6282;SDS011;3174;53.486;9.568;2024-03-08T13:31:45;17.50;;;7.93;;
6282;SDS011;3174;53.486;9.568;2024-03-08T13:34:15;14.07;;;7.23;;
6282;SDS011;3174;53.486;9.568;2024-03-08T13:36:45;14.17;;;7.87;;
6282;SDS011;3174;53.486;9.568;2024-03-08T13:39:13;17.67;;;7.80;;
6282;SDS011;3174;53.486;9.568;2024-03-08T13:41:42;14.87;;;8.20;;
6282;SDS011;3174;53.486;9.568;2024-03-08T13:44:11;16.07;;;7.23;;
6282;SDS011;3174;53.486;9.568;2024-03-08T13:46:39;13.33;;;7.50;;
6282;SDS011;3174;53.486;9.568;2024-03-08T13:49:08;18.40;;;8.20;;
6282;SDS011;3174;53.486;9.568;2024-03-08T13:51:37;16.90;;;7.57;;
6282;SDS011;3174;53.486;9.568;2024-03-08T13:54:07;14.67;;;7.13;;
6282;SDS011;3174;53.486;9.568;2024-03-08T13:56:36;12.93;;;7.00;;
6282;SDS011;3174;53.486;9.568;2024-03-08T13:59:04;13.07;;;6.63;;
6282;SDS011;3174;53.486;9.568;2024-03-08T14:01:32;12.93;;;8.23;;
6282;SDS011;3174;53.486;9.568;2024-03-08T14:04:02;13.83;;;7.33;;
6282;SDS011;3174;53.486;9.568;2024-03-08T14:06:31;12.27;;;6.50;;
6282;SDS011;3174;53.486;9.568;2024-03-08T14:08:59;11.70;;;6.40;;
6282;SDS011;3174;53.486;9.568;2024-03-08T14:11:29;12.80;;;6.10;;
6282;SDS011;3174;53.486;9.568;2024-03-08T14:13:57;13.03;;;6.17;;
6282;SDS011;3174;53.486;9.568;2024-03-08T14:16:25;11.57;;;6.53;;
6282;SDS011;3174;53.486;9.568;2024-03-08T14:18:54;11.90;;;7.07;;
6282;SDS011;3174;53.486;9.568;2024-03-08T14:21:22;12.07;;;5.63;;
6282;SDS011;3174;53.486;9.568;2024-03-08T14:23:50;12.07;;;6.10;;
6282;SDS011;3174;53.486;9.568;2024-03-08T14:26:18;11.47;;;5.50;;
6282;SDS011;3174;53.486;9.568;2024-03-08T14:28:49;12.60;;;5.83;;
6282;SDS011;3174;53.486;9.568;2024-03-08T14:31:18;12.20;;;6.70;;
6282;SDS011;3174;53.486;9.568;2024-03-08T14:33:46;10.37;;;5.63;;
6282;SDS011;3174;53.486;9.568;2024-03-08T14:36:15;12.00;;;5.97;;
6282;SDS011;3174;53.486;9.568;2024-03-08T14:38:46;13.13;;;6.10;;
6282;SDS011;3174;53.486;9.568;2024-03-08T14:41:14;9.90;;;5.83;;
6282;SDS011;3174;53.486;9.568;2024-03-08T14:43:43;10.13;;;5.63;;
6282;SDS011;3174;53.486;9.568;2024-03-08T14:46:13;19.40;;;5.10;;
6282;SDS011;3174;53.486;9.568;2024-03-08T14:48:43;13.67;;;5.80;;
6282;SDS011;3174;53.486;9.568;2024-03-08T14:51:16;12.30;;;6.73;;
6282;SDS011;3174;53.486;9.568;2024-03-08T14:53:46;13.27;;;6.30;;
6282;SDS011;3174;53.486;9.568;2024-03-08T14:56:14;10.13;;;6.17;;
6282;SDS011;3174;53.486;9.568;2024-03-08T14:58:43;11.23;;;6.90;;
6282;SDS011;3174;53.486;9.568;2024-03-08T15:01:12;11.27;;;6.67;;
6282;SDS011;3174;53.486;9.568;2024-03-08T15:03:41;11.97;;;5.83;;
6282;SDS011;3174;53.486;9.568;2024-03-08T15:06:09;12.87;;;6.50;;
6282;SDS011;3174;53.486;9.568;2024-03-08T15:08:38;11.97;;;6.30;;
6282;SDS011;3174;53.486;9.568;2024-03-08T15:11:07;9.37;;;5.33;;
6282;SDS011;3174;53.486;9.568;2024-03-08T15:13:35;12.63;;;6.43;;